| time (UTC) | temp C | wind direction | speed KPH | gust KPH | rain 1hr cm | rain 24hr cm | rain mn cm | humidity % | barometer mb |
| 20260510190741 | 27 | 248 | 0.0 | 6.4 | 0.00 | 0.00 | 0.00 | 32 | 1016.4 |
| 20260510190237 | 27 | 260 | 8.0 | 14.5 | 0.00 | 0.00 | 0.00 | 34 | 1016.5 |
| 20260510185733 | 26 | 316 | 4.8 | 11.3 | 0.00 | 0.00 | 0.00 | 37 | 1016.5 |
| 20260510185232 | 25 | 235 | 4.8 | 16.1 | 0.00 | 0.00 | 0.00 | 35 | 1016.5 |
| 20260510184728 | 26 | 272 | 6.4 | 20.9 | 0.00 | 0.00 | 0.00 | 34 | 1016.2 |
| 20260510184225 | 27 | 261 | 6.4 | 6.4 | 0.00 | 0.00 | 0.00 | 33 | 1016.6 |
| 20260510183720 | 27 | 306 | 9.7 | 9.7 | 0.00 | 0.00 | 0.00 | 37 | 1016.4 |
| 20260510183215 | 26 | 263 | 8.0 | 17.7 | 0.00 | 0.00 | 0.00 | 33 | 1016.5 |
| 20260510182712 | 25 | 283 | 4.8 | 16.1 | 0.00 | 0.00 | 0.00 | 36 | 1016.8 |
| 20260510182207 | 27 | 146 | 3.2 | 12.9 | 0.00 | 0.00 | 0.00 | 33 | 1016.6 |
| 20260510181704 | 27 | 229 | 3.2 | 4.8 | 0.00 | 0.00 | 0.00 | 35 | 1016.4 |
| 20260510181202 | 26 | 114 | 8.0 | 9.7 | 0.00 | 0.00 | 0.00 | 36 | 1016.8 |
| 20260510180657 | 26 | 266 | 8.0 | 11.3 | 0.00 | 0.00 | 0.00 | 35 | 1016.8 |
| 20260510180155 | 27 | 281 | 6.4 | 8.0 | 0.00 | 0.00 | 0.00 | 35 | 1016.7 |
| 20260510175650 | 26 | 0 | 4.8 | 8.0 | 0.00 | 0.00 | 0.00 | 36 | 1016.7 |
| 20260510175146 | 26 | 272 | 8.0 | 8.0 | 0.00 | 0.00 | 0.00 | 40 | 1016.9 |
| 20260510174644 | 26 | 293 | 6.4 | 16.1 | 0.00 | 0.00 | 0.00 | 36 | 1016.8 |
| 20260510174142 | 25 | 247 | 11.3 | 17.7 | 0.00 | 0.00 | 0.00 | 37 | 1017.0 |
| 20260510173637 | 25 | 241 | 14.5 | 17.7 | 0.00 | 0.00 | 0.00 | 36 | 1017.1 |
| 20260510173134 | 26 | 234 | 12.9 | 20.9 | 0.00 | 0.00 | 0.00 | 35 | 1017.2 |
| 20260510172629 | 25 | 94 | 4.8 | 6.4 | 0.00 | 0.00 | 0.00 | 38 | 1017.1 |
| 20260510172126 | 25 | 233 | 9.7 | 17.7 | 0.00 | 0.00 | 0.00 | 35 | 1017.2 |
| 20260510171622 | 25 | 161 | 0.0 | 12.9 | 0.00 | 0.00 | 0.00 | 38 | 1017.4 |
| 20260510171120 | 25 | 313 | 9.7 | 14.5 | 0.00 | 0.00 | 0.00 | 37 | 1017.3 |
| 20260510170616 | 25 | 324 | 9.7 | 11.3 | 0.00 | 0.00 | 0.00 | 35 | 1017.3 |
| 20260510170113 | 25 | 137 | 1.6 | 4.8 | 0.00 | 0.00 | 0.00 | 34 | 1017.4 |
| 20260510165609 | 25 | 234 | 6.4 | 12.9 | 0.00 | 0.00 | 0.00 | 35 | 1017.2 |
| 20260510165104 | 25 | 47 | 8.0 | 14.5 | 0.00 | 0.00 | 0.00 | 36 | 1017.4 |
| 20260510164602 | 25 | 332 | 14.5 | 14.5 | 0.00 | 0.00 | 0.00 | 34 | 1017.3 |
| 20260510164059 | 25 | 233 | 9.7 | 14.5 | 0.00 | 0.00 | 0.00 | 35 | 1017.4 |
| 20260510163554 | 25 | 11 | 4.8 | 8.0 | 0.00 | 0.00 | 0.00 | 32 | 1017.3 |
| 20260510163051 | 25 | 275 | 11.3 | 20.9 | 0.00 | 0.00 | 0.00 | 31 | 1017.7 |
| 20260510162545 | 25 | 248 | 0.0 | 11.3 | 0.00 | 0.00 | 0.00 | 34 | 1017.7 |
| 20260510162042 | 25 | 241 | 9.7 | 11.3 | 0.00 | 0.00 | 0.00 | 36 | 1017.5 |
| 20260510161538 | 25 | 255 | 11.3 | 14.5 | 0.00 | 0.00 | 0.00 | 36 | 1017.6 |
| 20260510161035 | 24 | 34 | 6.4 | 11.3 | 0.00 | 0.00 | 0.00 | 37 | 1017.5 |
| 20260510160532 | 24 | 314 | 14.5 | 17.7 | 0.00 | 0.00 | 0.00 | 39 | 1017.5 |
| 20260510160031 | 24 | 37 | 0.0 | 8.0 | 0.00 | 0.00 | 0.00 | 38 | 1017.6 |
| 20260510155528 | 24 | 66 | 6.4 | 11.3 | 0.00 | 0.00 | 0.00 | 38 | 1017.7 |
| 20260510155025 | 24 | 262 | 3.2 | 6.4 | 0.00 | 0.00 | 0.00 | 37 | 1017.6 |
| 20260510154520 | 24 | 342 | 8.0 | 11.3 | 0.00 | 0.00 | 0.00 | 37 | 1017.8 |
| 20260510154015 | 24 | 247 | 4.8 | 12.9 | 0.00 | 0.00 | 0.00 | 42 | 1017.7 |
| 20260510153510 | 24 | 248 | 12.9 | 14.5 | 0.00 | 0.00 | 0.00 | 40 | 1017.6 |
| 20260510153008 | 24 | 297 | 8.0 | 19.3 | 0.00 | 0.00 | 0.00 | 39 | 1017.6 |
| 20260510152505 | 23 | 307 | 3.2 | 8.0 | 0.00 | 0.00 | 0.00 | 42 | 1017.9 |
| 20260510152001 | 23 | 290 | 11.3 | 17.7 | 0.00 | 0.00 | 0.00 | 39 | 1017.8 |
| 20260510151458 | 23 | 237 | 14.5 | 17.7 | 0.00 | 0.00 | 0.00 | 40 | 1017.9 |
| 20260510150954 | 23 | 357 | 4.8 | 8.0 | 0.00 | 0.00 | 0.00 | 43 | 1018.2 |
| 20260510150450 | 23 | 280 | 4.8 | 11.3 | 0.00 | 0.00 | 0.00 | 41 | 1018.0 |
| 20260510145946 | 23 | 269 | 8.0 | 17.7 | 0.00 | 0.00 | 0.00 | 46 | 1017.9 |
| 20260510145442 | 23 | 269 | 3.2 | 16.1 | 0.00 | 0.00 | 0.00 | 46 | 1018.0 |
| 20260510144939 | 22 | 287 | 4.8 | 14.5 | 0.00 | 0.00 | 0.00 | 49 | 1017.9 |
| 20260510144436 | 22 | 14 | 8.0 | 12.9 | 0.00 | 0.00 | 0.00 | 47 | 1017.8 |
| 20260510143931 | 23 | 209 | 3.2 | 4.8 | 0.00 | 0.00 | 0.00 | 53 | 1017.6 |
| 20260510143427 | 22 | 51 | 3.2 | 8.0 | 0.00 | 0.00 | 0.00 | 55 | 1018.0 |
| 20260510142925 | 22 | 285 | 4.8 | 6.4 | 0.00 | 0.00 | 0.00 | 58 | 1017.9 |
| 20260510142421 | 22 | 150 | 3.2 | 3.2 | 0.00 | 0.00 | 0.00 | 57 | 1018.1 |
| 20260510141917 | 21 | 223 | 3.2 | 8.0 | 0.00 | 0.00 | 0.00 | 58 | 1018.0 |
| 20260510141414 | 22 | 211 | 4.8 | 4.8 | 0.00 | 0.00 | 0.00 | 58 | 1017.9 |
| 20260510140906 | 22 | 226 | 0.0 | 4.8 | 0.00 | 0.00 | 0.00 | 57 | 1018.0 |
| 20260510140402 | 21 | 305 | 0.0 | 4.8 | 0.00 | 0.00 | 0.00 | 59 | 1018.0 |
| 20260510135901 | 21 | 230 | 3.2 | 4.8 | 0.00 | 0.00 | 0.00 | 62 | 1018.0 |
| 20260510135358 | 20 | 167 | 3.2 | 4.8 | 0.00 | 0.00 | 0.00 | 61 | 1018.0 |
| 20260510134855 | 20 | 231 | 3.2 | 8.0 | 0.00 | 0.00 | 0.00 | 65 | 1017.9 |
| 20260510134351 | 20 | 220 | 1.6 | 6.4 | 0.00 | 0.00 | 0.00 | 66 | 1017.9 |
| 20260510133848 | 19 | 244 | 3.2 | 4.8 | 0.00 | 0.00 | 0.00 | 69 | 1018.1 |
| 20260510133344 | 18 | 227 | 3.2 | 6.4 | 0.00 | 0.00 | 0.00 | 70 | 1018.0 |
| 20260510132839 | 18 | 198 | 3.2 | 4.8 | 0.00 | 0.00 | 0.00 | 73 | 1017.9 |
| 20260510132338 | 18 | 238 | 3.2 | 4.8 | 0.00 | 0.00 | 0.00 | 74 | 1018.0 |
| 20260510131834 | 18 | 215 | 0.0 | 6.4 | 0.00 | 0.00 | 0.00 | 77 | 1018.0 |
| 20260510131332 | 18 | 199 | 0.0 | 4.8 | 0.00 | 0.00 | 0.00 | 76 | 1017.9 |
| 20260510130828 | 18 | 247 | 1.6 | 4.8 | 0.00 | 0.00 | 0.00 | 75 | 1017.7 |
| 20260510130325 | 19 | 13 | 0.0 | 4.8 | 0.00 | 0.00 | 0.00 | 65 | 1018.1 |
| 20260510125822 | 19 | 244 | 0.0 | 4.8 | 0.00 | 0.00 | 0.00 | 66 | 1017.8 |
| 20260510125318 | 18 | 125 | 1.6 | 3.2 | 0.00 | 0.00 | 0.00 | 75 | 1017.9 |
| 20260510124815 | 17 | 215 | 0.0 | 3.2 | 0.00 | 0.00 | 0.00 | 79 | 1018.0 |
| 20260510124312 | 17 | 212 | 1.6 | 3.2 | 0.00 | 0.00 | 0.00 | 77 | 1017.7 |
| 20260510123807 | 17 | 314 | 0.0 | 3.2 | 0.00 | 0.00 | 0.00 | 79 | 1017.7 |
| 20260510123303 | 15 | 147 | 0.0 | 3.2 | 0.00 | 0.00 | 0.00 | 85 | 1017.8 |
| 20260510122800 | 15 | 213 | 3.2 | 4.8 | 0.00 | 0.00 | 0.00 | 84 | 1017.7 |
| 20260510122256 | 16 | 171 | 0.0 | 3.2 | 0.00 | 0.00 | 0.00 | 79 | 1017.6 |
| 20260510121752 | 16 | 133 | 3.2 | 3.2 | 0.00 | 0.00 | 0.00 | 80 | 1017.7 |
| 20260510121250 | 17 | 42 | 1.6 | 3.2 | 0.00 | 0.00 | 0.00 | 78 | 1017.5 |
| 20260510120747 | 16 | 217 | 3.2 | 3.2 | 0.00 | 0.00 | 0.00 | 78 | 1017.4 |
| 20260510120244 | 15 | 213 | 1.6 | 1.6 | 0.00 | 0.00 | 0.00 | 81 | 1017.2 |
| 20260510115739 | 15 | 146 | 1.6 | 4.8 | 0.00 | 0.00 | 0.00 | 79 | 1017.2 |
| 20260510115238 | 15 | 101 | 3.2 | 4.8 | 0.00 | 0.00 | 0.00 | 80 | 1017.0 |
| 20260510114732 | 14 | 103 | 3.2 | 4.8 | 0.00 | 0.00 | 0.00 | 84 | 1016.8 |
| 20260510114230 | 13 | 99 | 0.0 | 3.2 | 0.00 | 0.00 | 0.00 | 85 | 1017.0 |
| 20260510113720 | 13 | 150 | 1.6 | 4.8 | 0.00 | 0.00 | 0.00 | 82 | 1016.8 |
| 20260510113217 | 15 | 107 | 4.8 | 6.4 | 0.00 | 0.00 | 0.00 | 78 | 1016.6 |
| 20260510112712 | 13 | 111 | 1.6 | 3.2 | 0.00 | 0.00 | 0.00 | 82 | 1016.6 |
| 20260510112210 | 15 | 148 | 0.0 | 4.8 | 0.00 | 0.00 | 0.00 | 78 | 1016.1 |
| 20260510111705 | 13 | 145 | 0.0 | 3.2 | 0.00 | 0.00 | 0.00 | 81 | 1016.6 |
| 20260510111203 | 13 | 41 | 3.2 | 4.8 | 0.00 | 0.00 | 0.00 | 79 | 1016.2 |
| 20260510110702 | 13 | 52 | 3.2 | 4.8 | 0.00 | 0.00 | 0.00 | 83 | 1016.0 |
| 20260510110201 | 12 | 42 | 1.6 | 6.4 | 0.00 | 0.00 | 0.00 | 91 | 1016.1 |
| 20260510105655 | 11 | 109 | 6.4 | 9.7 | 0.00 | 0.00 | 0.00 | 95 | 1015.8 |
| 20260510105150 | 10 | 115 | 6.4 | 8.0 | 0.00 | 0.00 | 0.00 | 96 | 1016.0 |
| 20260510104647 | 10 | 106 | 6.4 | 9.7 | 0.00 | 0.00 | 0.00 | 96 | 1016.1 |
| 20260510104143 | 10 | 114 | 8.0 | 9.7 | 0.00 | 0.00 | 0.00 | 96 | 1015.9 |
| 20260510103635 | 10 | 107 | 4.8 | 8.0 | 0.00 | 0.00 | 0.00 | 96 | 1015.8 |
| 20260510103131 | 10 | 103 | 8.0 | 9.7 | 0.00 | 0.00 | 0.00 | 96 | 1015.8 |
| 20260510102626 | 10 | 110 | 6.4 | 11.3 | 0.00 | 0.00 | 0.00 | 96 | 1015.7 |
| 20260510102122 | 10 | 106 | 8.0 | 9.7 | 0.00 | 0.00 | 0.00 | 96 | 1015.6 |
| 20260510101620 | 10 | 115 | 4.8 | 8.0 | 0.00 | 0.00 | 0.00 | 96 | 1015.6 |
| 20260510101118 | 10 | 119 | 6.4 | 8.0 | 0.00 | 0.00 | 0.00 | 95 | 1015.3 |
| 20260510100614 | 10 | 104 | 6.4 | 8.0 | 0.00 | 0.00 | 0.00 | 95 | 1015.5 |
| 20260510100112 | 10 | 115 | 6.4 | 8.0 | 0.00 | 0.00 | 0.00 | 94 | 1015.5 |
| 20260510095607 | 11 | 105 | 4.8 | 6.4 | 0.00 | 0.00 | 0.00 | 94 | 1015.2 |
| 20260510095102 | 11 | 107 | 3.2 | 4.8 | 0.00 | 0.00 | 0.00 | 94 | 1015.4 |
| 20260510094601 | 10 | 111 | 3.2 | 4.8 | 0.00 | 0.00 | 0.00 | 93 | 1015.2 |
| 20260510094057 | 10 | 108 | 3.2 | 4.8 | 0.00 | 0.00 | 0.00 | 93 | 1015.2 |
| 20260510093554 | 11 | 120 | 1.6 | 3.2 | 0.00 | 0.00 | 0.00 | 91 | 1015.4 |
| 20260510093050 | 11 | 118 | 3.2 | 4.8 | 0.00 | 0.00 | 0.00 | 89 | 1015.2 |
| 20260510092547 | 12 | 180 | 0.0 | 4.8 | 0.00 | 0.00 | 0.00 | 86 | 1015.2 |
| 20260510092046 | 13 | 100 | 6.4 | 8.0 | 0.00 | 0.00 | 0.00 | 86 | 1014.9 |
| 20260510091544 | 13 | 97 | 6.4 | 8.0 | 0.00 | 0.00 | 0.00 | 87 | 1015.2 |
| 20260510091039 | 12 | 98 | 4.8 | 8.0 | 0.00 | 0.00 | 0.00 | 93 | 1014.8 |
| 20260510090537 | 11 | 100 | 8.0 | 8.0 | 0.00 | 0.00 | 0.00 | 95 | 1014.8 |
| 20260510090032 | 11 | 98 | 8.0 | 8.0 | 0.00 | 0.00 | 0.00 | 96 | 1014.6 |
| 20260510085532 | 11 | 98 | 4.8 | 4.8 | 0.00 | 0.00 | 0.00 | 95 | 1014.9 |
| 20260510085029 | 11 | 113 | 4.8 | 8.0 | 0.00 | 0.00 | 0.00 | 95 | 1014.9 |
| 20260510084526 | 11 | 112 | 6.4 | 6.4 | 0.00 | 0.00 | 0.00 | 95 | 1014.8 |
| 20260510084022 | 11 | 132 | 4.8 | 6.4 | 0.00 | 0.00 | 0.00 | 95 | 1014.5 |
| 20260510083519 | 11 | 76 | 3.2 | 4.8 | 0.00 | 0.00 | 0.00 | 94 | 1014.7 |
| 20260510083015 | 11 | 73 | 3.2 | 4.8 | 0.00 | 0.00 | 0.00 | 94 | 1014.8 |
| 20260510082513 | 11 | 104 | 4.8 | 6.4 | 0.00 | 0.00 | 0.00 | 94 | 1014.6 |
| 20260510082013 | 11 | 106 | 4.8 | 6.4 | 0.00 | 0.00 | 0.00 | 94 | 1014.5 |
| 20260510081508 | 11 | 100 | 3.2 | 6.4 | 0.00 | 0.00 | 0.00 | 94 | 1014.4 |
| 20260510081005 | 11 | 111 | 6.4 | 6.4 | 0.00 | 0.00 | 0.00 | 93 | 1014.1 |
| 20260510080503 | 12 | 127 | 6.4 | 6.4 | 0.00 | 0.00 | 0.00 | 92 | 1014.5 |
| 20260510080000 | 12 | 101 | 6.4 | 8.0 | 0.00 | 0.00 | 0.00 | 91 | 1014.0 |
| 20260510075458 | 12 | 95 | 6.4 | 9.7 | 0.00 | 0.00 | 0.00 | 92 | 1014.2 |
| 20260510074954 | 12 | 113 | 8.0 | 8.0 | 0.00 | 0.00 | 0.00 | 91 | 1014.0 |
| 20260510074452 | 12 | 128 | 6.4 | 6.4 | 0.00 | 0.00 | 0.00 | 90 | 1014.2 |
| 20260510073947 | 13 | 127 | 4.8 | 9.7 | 0.00 | 0.00 | 0.00 | 87 | 1014.0 |
| 20260510073443 | 15 | 105 | 4.8 | 6.4 | 0.00 | 0.00 | 0.00 | 75 | 1014.1 |
| 20260510072940 | 16 | 78 | 3.2 | 6.4 | 0.00 | 0.00 | 0.00 | 73 | 1014.0 |
| 20260510072437 | 16 | 25 | 4.8 | 12.9 | 0.00 | 0.00 | 0.00 | 73 | 1014.1 |
| 20260510071932 | 16 | 86 | 8.0 | 8.0 | 0.00 | 0.00 | 0.00 | 74 | 1013.9 |
| 20260510071429 | 16 | 30 | 3.2 | 8.0 | 0.00 | 0.00 | 0.00 | 74 | 1014.0 |
| 20260510070927 | 15 | 63 | 6.4 | 11.3 | 0.00 | 0.00 | 0.00 | 75 | 1013.8 |
| 20260510070424 | 15 | 57 | 6.4 | 9.7 | 0.00 | 0.00 | 0.00 | 77 | 1014.1 |
| 20260510065920 | 15 | 15 | 6.4 | 11.3 | 0.00 | 0.00 | 0.00 | 77 | 1013.9 |
| 20260510065416 | 15 | 73 | 6.4 | 8.0 | 0.00 | 0.00 | 0.00 | 78 | 1013.9 |
| 20260510064913 | 15 | 29 | 6.4 | 12.9 | 0.00 | 0.00 | 0.00 | 78 | 1014.1 |
| 20260510064411 | 15 | 94 | 4.8 | 9.7 | 0.00 | 0.00 | 0.00 | 82 | 1014.1 |
| 20260510063907 | 15 | 54 | 6.4 | 8.0 | 0.00 | 0.00 | 0.00 | 84 | 1014.1 |
| 20260510063403 | 15 | 68 | 6.4 | 9.7 | 0.00 | 0.00 | 0.00 | 88 | 1014.2 |
| 20260510062901 | 15 | 82 | 4.8 | 9.7 | 0.00 | 0.00 | 0.00 | 94 | 1014.1 |
| 20260510062355 | 14 | 91 | 4.8 | 8.0 | 0.00 | 0.00 | 0.00 | 97 | 1014.2 |
| 20260510061851 | 14 | 45 | 6.4 | 9.7 | 0.00 | 0.00 | 0.00 | 98 | 1014.2 |
| 20260510061348 | 13 | 105 | 4.8 | 8.0 | 0.00 | 0.00 | 0.00 | 98 | 1014.4 |
| 20260510060844 | 12 | 120 | 8.0 | 8.0 | 0.00 | 0.00 | 0.00 | 98 | 1014.3 |
| 20260510060341 | 12 | 114 | 4.8 | 8.0 | 0.00 | 0.00 | 0.00 | 97 | 1014.4 |
| 20260510055838 | 12 | 140 | 4.8 | 8.0 | 0.00 | 0.00 | 0.00 | 97 | 1014.5 |
| 20260510055336 | 12 | 101 | 3.2 | 4.8 | 0.00 | 0.00 | 0.00 | 97 | 1014.5 |
| 20260510054831 | 12 | 127 | 4.8 | 6.4 | 0.00 | 0.00 | 0.00 | 97 | 1014.4 |
| 20260510054326 | 13 | 113 | 4.8 | 8.0 | 0.00 | 0.00 | 0.00 | 97 | 1014.2 |
| 20260510053822 | 13 | 113 | 4.8 | 4.8 | 0.00 | 0.00 | 0.00 | 97 | 1014.3 |
| 20260510053317 | 13 | 102 | 6.4 | 8.0 | 0.00 | 0.00 | 0.00 | 97 | 1014.7 |
| 20260510052814 | 13 | 78 | 4.8 | 6.4 | 0.00 | 0.00 | 0.00 | 97 | 1014.5 |
| 20260510052310 | 13 | 86 | 3.2 | 4.8 | 0.00 | 0.00 | 0.00 | 97 | 1014.6 |
| 20260510051806 | 13 | 127 | 3.2 | 4.8 | 0.00 | 0.00 | 0.00 | 97 | 1014.7 |
| 20260510051303 | 13 | 103 | 4.8 | 4.8 | 0.00 | 0.00 | 0.00 | 97 | 1014.4 |
| 20260510050800 | 13 | 101 | 3.2 | 4.8 | 0.00 | 0.00 | 0.00 | 96 | 1014.6 |
| 20260510050256 | 13 | 103 | 1.6 | 3.2 | 0.00 | 0.00 | 0.00 | 96 | 1014.6 |
| 20260510045754 | 13 | 118 | 4.8 | 6.4 | 0.00 | 0.00 | 0.00 | 96 | 1014.6 |
| 20260510045250 | 13 | 126 | 4.8 | 6.4 | 0.00 | 0.00 | 0.00 | 96 | 1014.6 |
| 20260510044747 | 14 | 107 | 4.8 | 8.0 | 0.00 | 0.00 | 0.00 | 96 | 1014.6 |
| 20260510044245 | 13 | 103 | 6.4 | 8.0 | 0.00 | 0.00 | 0.00 | 96 | 1014.4 |
| 20260510043740 | 13 | 116 | 6.4 | 11.3 | 0.00 | 0.00 | 0.00 | 96 | 1014.4 |
| 20260510043237 | 14 | 115 | 6.4 | 8.0 | 0.00 | 0.00 | 0.00 | 95 | 1014.5 |
| 20260510042734 | 15 | 102 | 6.4 | 8.0 | 0.00 | 0.00 | 0.00 | 96 | 1014.6 |
| 20260510042229 | 14 | 102 | 4.8 | 8.0 | 0.00 | 0.00 | 0.00 | 95 | 1014.5 |
| 20260510041727 | 14 | 108 | 8.0 | 8.0 | 0.00 | 0.00 | 0.00 | 95 | 1014.7 |
| 20260510041224 | 14 | 111 | 6.4 | 9.7 | 0.00 | 0.00 | 0.00 | 95 | 1014.5 |
| 20260510040721 | 15 | 113 | 4.8 | 8.0 | 0.00 | 0.00 | 0.00 | 95 | 1014.6 |
| 20260510040218 | 15 | 95 | 4.8 | 8.0 | 0.00 | 0.00 | 0.00 | 94 | 1014.5 |
| 20260510035713 | 15 | 104 | 6.4 | 8.0 | 0.00 | 0.00 | 0.00 | 94 | 1014.4 |
| 20260510035209 | 15 | 111 | 6.4 | 9.7 | 0.00 | 0.00 | 0.00 | 94 | 1014.5 |
| 20260510034705 | 15 | 103 | 6.4 | 8.0 | 0.00 | 0.00 | 0.00 | 94 | 1014.4 |
| 20260510034203 | 15 | 104 | 8.0 | 8.0 | 0.00 | 0.00 | 0.00 | 94 | 1014.5 |
| 20260510033659 | 15 | 100 | 4.8 | 8.0 | 0.00 | 0.00 | 0.00 | 93 | 1014.7 |
| 20260510033157 | 15 | 111 | 6.4 | 9.7 | 0.00 | 0.00 | 0.00 | 93 | 1014.6 |
| 20260510032653 | 15 | 101 | 4.8 | 8.0 | 0.00 | 0.00 | 0.00 | 93 | 1014.5 |
| 20260510032148 | 15 | 109 | 6.4 | 8.0 | 0.00 | 0.00 | 0.00 | 93 | 1014.7 |
| 20260510031643 | 15 | 121 | 6.4 | 8.0 | 0.00 | 0.00 | 0.00 | 92 | 1014.5 |
| 20260510031135 | 15 | 120 | 6.4 | 8.0 | 0.00 | 0.00 | 0.00 | 92 | 1014.4 |
| 20260510030635 | 15 | 115 | 4.8 | 6.4 | 0.00 | 0.00 | 0.00 | 91 | 1014.6 |
| 20260510030133 | 16 | 124 | 6.4 | 8.0 | 0.00 | 0.00 | 0.00 | 91 | 1014.2 |
| 20260510025630 | 16 | 112 | 4.8 | 8.0 | 0.00 | 0.00 | 0.00 | 90 | 1014.3 |
| 20260510025127 | 16 | 130 | 4.8 | 6.4 | 0.00 | 0.00 | 0.00 | 89 | 1014.4 |
| 20260510024623 | 16 | 114 | 6.4 | 8.0 | 0.00 | 0.00 | 0.00 | 88 | 1014.4 |
| 20260510024120 | 16 | 106 | 4.8 | 6.4 | 0.00 | 0.00 | 0.00 | 88 | 1014.2 |
| 20260510023616 | 16 | 116 | 3.2 | 6.4 | 0.00 | 0.00 | 0.00 | 88 | 1014.1 |
| 20260510023114 | 16 | 109 | 4.8 | 4.8 | 0.00 | 0.00 | 0.00 | 88 | 1013.8 |
| 20260510022613 | 17 | 89 | 4.8 | 6.4 | 0.00 | 0.00 | 0.00 | 87 | 1013.9 |
| 20260510022108 | 17 | 108 | 4.8 | 6.4 | 0.00 | 0.00 | 0.00 | 86 | 1013.9 |
| 20260510021604 | 17 | 102 | 6.4 | 6.4 | 0.00 | 0.00 | 0.00 | 86 | 1014.0 |
| 20260510021102 | 17 | 93 | 4.8 | 6.4 | 0.00 | 0.00 | 0.00 | 86 | 1013.8 |
| 20260510020556 | 17 | 107 | 6.4 | 8.0 | 0.00 | 0.00 | 0.00 | 86 | 1013.8 |
| 20260510020052 | 17 | 108 | 4.8 | 8.0 | 0.00 | 0.00 | 0.00 | 86 | 1013.7 |
| 20260510015548 | 17 | 88 | 4.8 | 8.0 | 0.00 | 0.00 | 0.00 | 86 | 1013.7 |
| 20260510015044 | 17 | 82 | 4.8 | 8.0 | 0.00 | 0.00 | 0.00 | 86 | 1013.4 |
| 20260510014540 | 17 | 120 | 4.8 | 8.0 | 0.00 | 0.00 | 0.00 | 86 | 1013.6 |
| 20260510014038 | 17 | 112 | 4.8 | 6.4 | 0.00 | 0.00 | 0.00 | 85 | 1013.4 |
| 20260510013532 | 17 | 106 | 3.2 | 6.4 | 0.00 | 0.00 | 0.00 | 84 | 1013.3 |
| 20260510013028 | 17 | 121 | 4.8 | 6.4 | 0.00 | 0.00 | 0.00 | 84 | 1012.9 |
| 20260510012522 | 17 | 112 | 4.8 | 6.4 | 0.00 | 0.00 | 0.00 | 83 | 1012.9 |
| 20260510012019 | 17 | 107 | 3.2 | 4.8 | 0.00 | 0.00 | 0.00 | 83 | 1013.1 |
| 20260510011518 | 17 | 92 | 3.2 | 6.4 | 0.00 | 0.00 | 0.00 | 83 | 1012.8 |
| 20260510011014 | 18 | 83 | 1.6 | 4.8 | 0.00 | 0.00 | 0.00 | 81 | 1012.8 |
| 20260510010512 | 18 | 94 | 3.2 | 4.8 | 0.00 | 0.00 | 0.00 | 81 | 1012.9 |
| 20260510010008 | 18 | 117 | 3.2 | 6.4 | 0.00 | 0.00 | 0.00 | 82 | 1012.7 |
| 20260510005504 | 18 | 102 | 4.8 | 6.4 | 0.00 | 0.00 | 0.00 | 82 | 1012.5 |
| 20260510005002 | 18 | 114 | 3.2 | 8.0 | 0.00 | 0.00 | 0.00 | 82 | 1012.1 |
| 20260510004459 | 18 | 108 | 3.2 | 4.8 | 0.00 | 0.00 | 0.00 | 81 | 1012.1 |
| 20260510003957 | 18 | 107 | 4.8 | 8.0 | 0.00 | 0.00 | 0.00 | 80 | 1012.4 |
| 20260510003453 | 18 | 120 | 4.8 | 4.8 | 0.00 | 0.00 | 0.00 | 81 | 1012.0 |
| 20260510002948 | 18 | 126 | 3.2 | 4.8 | 0.00 | 0.00 | 0.00 | 80 | 1011.9 |
| 20260510002445 | 18 | 116 | 4.8 | 6.4 | 0.00 | 0.00 | 0.00 | 79 | 1012.0 |
| 20260510001941 | 19 | 132 | 3.2 | 6.4 | 0.00 | 0.00 | 0.00 | 78 | 1011.8 |
| 20260510001439 | 19 | 107 | 3.2 | 4.8 | 0.00 | 0.00 | 0.00 | 76 | 1012.0 |
| 20260510000937 | 20 | 119 | 1.6 | 4.8 | 0.00 | 0.00 | 0.00 | 77 | 1012.1 |
| 20260510000433 | 20 | 138 | 1.6 | 4.8 | 0.00 | 0.00 | 0.00 | 75 | 1011.9 |
| 20260509235929 | 20 | 108 | 0.0 | 4.8 | 0.00 | 0.00 | 0.00 | 75 | 1011.8 |
| 20260509235426 | 20 | 116 | 4.8 | 6.4 | 0.00 | 0.00 | 0.00 | 76 | 1011.8 |
| 20260509234922 | 21 | 131 | 3.2 | 6.4 | 0.00 | 0.00 | 0.00 | 72 | 1012.0 |
| 20260509234419 | 21 | 206 | 3.2 | 6.4 | 0.00 | 0.00 | 0.00 | 66 | 1011.8 |
| 20260509233917 | 21 | 234 | 4.8 | 9.7 | 0.00 | 0.00 | 0.00 | 66 | 1011.9 |
| 20260509233414 | 21 | 262 | 4.8 | 8.0 | 0.00 | 0.00 | 0.00 | 64 | 1011.8 |
| 20260509232910 | 22 | 233 | 3.2 | 4.8 | 0.00 | 0.00 | 0.00 | 63 | 1011.8 |
| 20260509232408 | 22 | 253 | 4.8 | 4.8 | 0.00 | 0.00 | 0.00 | 63 | 1011.8 |
| 20260509231904 | 21 | 278 | 1.6 | 4.8 | 0.00 | 0.00 | 0.00 | 64 | 1011.7 |
| 20260509231401 | 21 | 245 | 3.2 | 4.8 | 0.00 | 0.00 | 0.00 | 65 | 1011.5 |
| 20260509230859 | 21 | 252 | 4.8 | 4.8 | 0.00 | 0.00 | 0.00 | 64 | 1011.5 |
| 20260509230355 | 22 | 76 | 0.0 | 3.2 | 0.00 | 0.00 | 0.00 | 66 | 1011.3 |
| 20260509225851 | 21 | 257 | 3.2 | 4.8 | 0.00 | 0.00 | 0.00 | 64 | 1011.4 |
| 20260509225348 | 22 | 275 | 0.0 | 3.2 | 0.00 | 0.00 | 0.00 | 65 | 1011.1 |
| 20260509224844 | 22 | 246 | 3.2 | 4.8 | 0.00 | 0.00 | 0.00 | 64 | 1011.2 |
| 20260509224340 | 22 | 262 | 1.6 | 6.4 | 0.00 | 0.00 | 0.00 | 63 | 1011.1 |
| 20260509223837 | 22 | 283 | 4.8 | 9.7 | 0.00 | 0.00 | 0.00 | 61 | 1011.1 |
| 20260509223334 | 22 | 131 | 1.6 | 3.2 | 0.00 | 0.00 | 0.00 | 65 | 1011.2 |
| 20260509222831 | 21 | 119 | 3.2 | 4.8 | 0.00 | 0.00 | 0.00 | 65 | 1011.3 |
| 20260509222326 | 22 | 114 | 3.2 | 4.8 | 0.00 | 0.00 | 0.00 | 64 | 1011.1 |
| 20260509221821 | 22 | 139 | 3.2 | 4.8 | 0.00 | 0.00 | 0.00 | 63 | 1010.9 |
| 20260509221320 | 22 | 110 | 3.2 | 4.8 | 0.00 | 0.00 | 0.00 | 62 | 1011.1 |
| 20260509220820 | 22 | 125 | 3.2 | 8.0 | 0.00 | 0.00 | 0.00 | 63 | 1011.2 |
| 20260509220316 | 22 | 342 | 1.6 | 3.2 | 0.00 | 0.00 | 0.00 | 62 | 1011.1 |
| 20260509215811 | 22 | 120 | 6.4 | 6.4 | 0.00 | 0.00 | 0.00 | 62 | 1011.1 |
| 20260509215309 | 22 | 128 | 1.6 | 4.8 | 0.00 | 0.00 | 0.00 | 62 | 1011.3 |
| 20260509214805 | 22 | 149 | 3.2 | 4.8 | 0.00 | 0.00 | 0.00 | 61 | 1011.3 |
| 20260509214303 | 22 | 132 | 3.2 | 4.8 | 0.00 | 0.00 | 0.00 | 60 | 1010.9 |
| 20260509213759 | 22 | 185 | 0.0 | 3.2 | 0.00 | 0.00 | 0.00 | 59 | 1010.7 |
| 20260509213255 | 22 | 123 | 4.8 | 6.4 | 0.00 | 0.00 | 0.00 | 58 | 1010.6 |
| 20260509212753 | 23 | 140 | 0.0 | 4.8 | 0.00 | 0.00 | 0.00 | 57 | 1010.6 |
| 20260509212250 | 22 | 210 | 3.2 | 4.8 | 0.00 | 0.00 | 0.00 | 56 | 1010.7 |
| 20260509211745 | 23 | 129 | 3.2 | 4.8 | 0.00 | 0.00 | 0.00 | 56 | 1010.6 |
| 20260509211242 | 22 | 222 | 6.4 | 9.7 | 0.00 | 0.00 | 0.00 | 52 | 1010.5 |
| 20260509210738 | 23 | 218 | 0.0 | 4.8 | 0.00 | 0.00 | 0.00 | 52 | 1010.6 |
| 20260509210236 | 23 | 279 | 4.8 | 8.0 | 0.00 | 0.00 | 0.00 | 52 | 1010.4 |
| 20260509205735 | 23 | 159 | 4.8 | 8.0 | 0.00 | 0.00 | 0.00 | 54 | 1010.5 |
| 20260509205230 | 23 | 226 | 1.6 | 6.4 | 0.00 | 0.00 | 0.00 | 54 | 1010.4 |
| 20260509204726 | 22 | 289 | 3.2 | 4.8 | 0.00 | 0.00 | 0.00 | 54 | 1010.5 |
| 20260509204223 | 23 | 277 | 9.7 | 11.3 | 0.00 | 0.00 | 0.00 | 52 | 1010.4 |
| 20260509203719 | 24 | 123 | 4.8 | 9.7 | 0.00 | 0.00 | 0.00 | 50 | 1010.6 |
| 20260509203217 | 23 | 171 | 4.8 | 8.0 | 0.00 | 0.00 | 0.00 | 51 | 1010.5 |
| 20260509202712 | 23 | 157 | 1.6 | 6.4 | 0.00 | 0.00 | 0.00 | 54 | 1010.4 |
| 20260509202208 | 23 | 265 | 12.9 | 14.5 | 0.00 | 0.00 | 0.00 | 50 | 1010.5 |
| 20260509201703 | 25 | 219 | 6.4 | 6.4 | 0.00 | 0.00 | 0.00 | 48 | 1010.7 |
| 20260509201200 | 25 | 251 | 9.7 | 9.7 | 0.00 | 0.00 | 0.00 | 49 | 1010.6 |
| 20260509200657 | 24 | 183 | 3.2 | 6.4 | 0.00 | 0.00 | 0.00 | 51 | 1010.7 |
| 20260509200151 | 23 | 232 | 6.4 | 9.7 | 0.00 | 0.00 | 0.00 | 52 | 1010.6 |
| 20260509195647 | 23 | 243 | 8.0 | 9.7 | 0.00 | 0.00 | 0.00 | 54 | 1010.7 |
| 20260509195143 | 22 | 202 | 6.4 | 8.0 | 0.00 | 0.00 | 0.00 | 53 | 1010.7 |
| 20260509194637 | 22 | 120 | 3.2 | 12.9 | 0.00 | 0.00 | 0.00 | 55 | 1011.0 |
| 20260509194134 | 23 | 260 | 4.8 | 4.8 | 0.00 | 0.00 | 0.00 | 54 | 1011.3 |
| 20260509193630 | 22 | 246 | 6.4 | 11.3 | 0.00 | 0.00 | 0.00 | 52 | 1011.2 |
| 20260509193125 | 23 | 239 | 6.4 | 17.7 | 0.00 | 0.00 | 0.00 | 52 | 1011.2 |
| 20260509192623 | 23 | 266 | 1.6 | 14.5 | 0.00 | 0.00 | 0.00 | 54 | 1011.3 |
| 20260509192118 | 23 | 318 | 4.8 | 9.7 | 0.00 | 0.00 | 0.00 | 52 | 1011.3 |
| 20260509191612 | 22 | 265 | 9.7 | 11.3 | 0.00 | 0.00 | 0.00 | 50 | 1011.2 |
| 20260509191109 | 23 | 255 | 6.4 | 6.4 | 0.00 | 0.00 | 0.00 | 55 | 1011.2 |